METAR Data
IDs: Format: Raw Decoded Include TAF

Data at: 2347 UTC 24 Apr 2019

METAR for:KCAV (Clarion Muni, IA, US)
Text:KCAV 242335Z AUTO 18009KT 10SM CLR 23/03 A2976 RMK AO2 PWINO
Temperature: 23.0°C ( 73°F)
Dewpoint: 3.0°C ( 37°F) [RH = 27%]
Pressure (altimeter):29.76 inches Hg (1007.9 mb)
Winds:from the S (180 degrees) at 10 MPH (9 knots; 4.6 m/s)
Visibility:10 or more sm (16+ km)
Ceiling:at least 12,000 feet AGL
Clouds:sky clear below 12,000 feet AGL
QC Flag:automated observation with no human augmentation